Time;durP1;ratioP1;P1;durP2;ratioP2;P2;SDS_P1;SDS_P2;PMS_P1;PMS_P2;Temp;Humidity;BMP_temperature;BMP_pressure;BME280_temperature;BME280_humidity;BME280_pressure;Samples;Min_cycle;Max_cycle;Signal;HPM_P1;HPM_P2
2023/11/22 00:02:14;;;;;;;6.88;4.78;;;;;;;4.31;100.00;101139.06;5043268;28;20049;-71
2023/11/22 00:04:42;;;;;;;7.10;5.18;;;;;;;4.27;100.00;101128.59;5044989;28;20515;-71
2023/11/22 00:07:13;;;;;;;7.30;4.55;;;;;;;4.21;100.00;101140.91;5039786;28;20651;-70
2023/11/22 00:09:42;;;;;;;7.72;5.22;;;;;;;4.20;100.00;101146.16;5044724;28;20128;-69
2023/11/22 00:12:11;;;;;;;6.85;4.57;;;;;;;4.20;100.00;101148.78;5047512;28;20437;-71
2023/11/22 00:14:42;;;;;;;6.53;4.70;;;;;;;4.16;100.00;101147.06;5039952;28;20124;-71
2023/11/22 00:17:13;;;;;;;5.82;4.53;;;;;;;4.09;100.00;101148.84;5041239;28;20036;-73
2023/11/22 00:19:42;;;;;;;7.88;4.50;;;;;;;4.10;100.00;101153.22;5010184;28;20044;-69
2023/11/22 00:22:13;;;;;;;6.43;4.88;;;;;;;4.05;100.00;101141.91;5040162;28;20029;-70
2023/11/22 00:24:42;;;;;;;8.88;4.57;;;;;;;4.09;100.00;101167.19;5034474;28;20140;-69
2023/11/22 00:27:14;;;;;;;5.43;4.50;;;;;;;4.11;100.00;101167.19;5026030;28;20057;-71
2023/11/22 00:29:42;;;;;;;7.25;3.92;;;;;;;4.07;100.00;101175.97;5054990;28;20144;-70
2023/11/22 00:32:10;;;;;;;7.60;4.63;;;;;;;4.03;100.00;101179.50;5037192;28;20049;-70
2023/11/22 00:34:41;;;;;;;6.82;4.57;;;;;;;3.96;100.00;101185.66;5040385;28;20052;-70
2023/11/22 00:37:14;;;;;;;6.35;4.55;;;;;;;3.91;100.00;101185.72;5037030;28;20410;-70
2023/11/22 00:39:43;;;;;;;5.82;4.55;;;;;;;3.93;100.00;101183.09;5050805;28;20047;-70
2023/11/22 00:42:14;;;;;;;5.85;4.35;;;;;;;3.87;100.00;101186.59;5052800;28;20493;-71
2023/11/22 00:44:42;;;;;;;6.28;4.55;;;;;;;3.93;100.00;101189.19;5046782;28;20125;-70
2023/11/22 00:47:17;;;;;;;5.78;4.32;;;;;;;3.94;100.00;101196.16;5044502;28;20053;-69
2023/11/22 00:49:45;;;;;;;6.25;4.50;;;;;;;3.85;100.00;101184.00;5063452;28;20501;-69
2023/11/22 00:52:13;;;;;;;7.10;4.72;;;;;;;3.82;100.00;101185.75;5034429;28;20045;-69
2023/11/22 00:54:42;;;;;;;7.25;4.72;;;;;;;3.72;100.00;101192.81;5034767;28;20117;-70
2023/11/22 00:57:12;;;;;;;9.87;5.17;;;;;;;3.69;100.00;101190.22;5000186;28;20084;-70
2023/11/22 00:59:40;;;;;;;7.03;5.47;;;;;;;3.67;100.00;101191.09;5024828;28;20056;-69
2023/11/22 01:02:09;;;;;;;7.78;5.15;;;;;;;3.64;100.00;101191.97;5041115;28;20338;-70
2023/11/22 01:04:40;;;;;;;6.18;5.00;;;;;;;3.60;100.00;101185.03;5053035;28;20041;-69
2023/11/22 01:07:08;;;;;;;8.23;5.28;;;;;;;3.63;100.00;101189.38;5038179;28;20048;-69
2023/11/22 01:09:38;;;;;;;7.13;5.32;;;;;;;3.60;100.00;101190.28;5063950;28;20083;-70
2023/11/22 01:12:09;;;;;;;8.15;5.88;;;;;;;3.51;100.00;101185.94;5025055;28;20045;-71
2023/11/22 01:14:38;;;;;;;9.45;5.50;;;;;;;3.53;100.00;101204.28;5042090;28;20539;-70
2023/11/22 01:17:06;;;;;;;9.02;5.72;;;;;;;3.50;100.00;101188.56;5030743;28;20131;-70
2023/11/22 01:19:38;;;;;;;9.60;6.32;;;;;;;3.50;100.00;101199.91;5053766;28;20106;-69
2023/11/22 01:22:07;;;;;;;9.32;6.07;;;;;;;3.46;100.00;101198.19;5033663;28;20052;-70
2023/11/22 01:24:37;;;;;;;9.32;5.88;;;;;;;3.44;100.00;101199.97;5039429;28;20053;-70
2023/11/22 01:27:06;;;;;;;9.13;6.05;;;;;;;3.44;100.00;101210.44;5032522;28;20077;-71
2023/11/22 01:29:34;;;;;;;8.48;5.65;;;;;;;3.43;100.00;101213.06;5039935;28;20048;-70
2023/11/22 01:32:04;;;;;;;10.65;6.38;;;;;;;3.45;100.00;101211.31;5019245;28;20095;-70
2023/11/22 01:34:32;;;;;;;9.05;6.13;;;;;;;3.42;100.00;101200.84;5046381;28;20133;-70
2023/11/22 01:37:04;;;;;;;9.45;6.32;;;;;;;3.46;100.00;101213.91;5012568;28;20553;-70
2023/11/22 01:39:34;;;;;;;8.23;5.85;;;;;;;3.44;100.00;101215.69;5043047;28;20037;-69
2023/11/22 01:42:02;;;;;;;9.00;5.53;;;;;;;3.55;100.00;101231.31;5038728;28;20145;-70
2023/11/22 01:44:30;;;;;;;8.60;5.50;;;;;;;3.45;100.00;101198.22;5040391;28;20046;-70
2023/11/22 01:46:59;;;;;;;7.80;5.65;;;;;;;3.51;100.00;101225.22;5033821;28;20382;-70
2023/11/22 01:49:30;;;;;;;8.60;5.60;;;;;;;3.48;100.00;101232.22;5037018;28;20095;-71
2023/11/22 01:51:58;;;;;;;8.55;5.82;;;;;;;3.49;100.00;101229.59;5034786;28;20057;-69
2023/11/22 01:54:29;;;;;;;8.73;5.53;;;;;;;3.50;100.00;101248.78;5038460;28;20413;-70
2023/11/22 01:56:58;;;;;;;9.13;5.72;;;;;;;3.49;100.00;101245.31;5029293;28;20598;-71
2023/11/22 01:59:27;;;;;;;8.30;5.72;;;;;;;3.51;100.00;101254.03;5035396;28;20069;-70
2023/11/22 02:01:56;;;;;;;8.73;5.82;;;;;;;3.41;100.00;101251.47;5041846;28;20539;-71
2023/11/22 02:04:24;;;;;;;9.07;6.18;;;;;;;3.42;100.00;101253.22;5027120;28;20064;-70
2023/11/22 02:06:55;;;;;;;10.65;5.75;;;;;;;3.40;100.00;101254.97;5030419;28;20045;-70
2023/11/22 02:09:23;;;;;;;8.30;4.97;;;;;;;3.36;100.00;101255.84;5041601;28;20056;-70
2023/11/22 02:11:51;;;;;;;8.68;5.53;;;;;;;3.31;100.00;101265.44;5042769;28;20116;-70
2023/11/22 02:14:20;;;;;;;8.30;6.00;;;;;;;3.27;100.00;101261.13;5046911;28;20506;-70
2023/11/22 02:16:48;;;;;;;7.95;5.35;;;;;;;3.25;100.00;101263.75;5033364;28;20052;-69
2023/11/22 02:19:18;;;;;;;7.85;5.38;;;;;;;3.25;100.00;101263.75;5038475;28;20048;-69
2023/11/22 02:21:47;;;;;;;8.80;5.80;;;;;;;3.24;100.00;101271.59;5039500;28;20033;-70
2023/11/22 02:24:18;;;;;;;8.38;5.40;;;;;;;3.24;100.00;101272.47;5045803;28;20080;-70
2023/11/22 02:26:46;;;;;;;8.50;5.10;;;;;;;3.22;100.00;101274.22;5037276;28;20052;-71
2023/11/22 02:29:15;;;;;;;6.63;4.78;;;;;;;3.18;100.00;101273.34;5043228;28;20969;-70
2023/11/22 02:31:44;;;;;;;7.32;5.28;;;;;;;3.18;100.00;101286.44;5042151;28;20052;-69
2023/11/22 02:34:11;;;;;;;7.28;4.93;;;;;;;3.14;100.00;101281.22;5043364;28;20045;-71
2023/11/22 02:36:40;;;;;;;8.50;5.55;;;;;;;3.16;100.00;101282.94;5048433;28;20159;-70
2023/11/22 02:39:09;;;;;;;6.88;4.70;;;;;;;3.17;100.00;101284.69;5043406;28;20361;-69
2023/11/22 02:41:44;;;;;;;7.00;4.82;;;;;;;3.18;100.00;101275.97;5040484;28;20051;-70
2023/11/22 02:44:17;;;;;;;7.40;4.65;;;;;;;3.21;100.00;101277.72;5044549;28;20149;-69
2023/11/22 02:46:45;;;;;;;7.53;4.72;;;;;;;3.23;100.00;101267.22;5049749;28;20148;-70
2023/11/22 02:49:13;;;;;;;6.78;4.35;;;;;;;3.26;100.00;101256.75;5040958;28;20060;-70
2023/11/22 02:51:41;;;;;;;7.05;5.05;;;;;;;3.24;100.00;101253.28;5045904;28;20041;-69
2023/11/22 02:54:11;;;;;;;7.05;5.03;;;;;;;3.20;100.00;101254.16;5042339;28;20150;-69
2023/11/22 02:56:40;;;;;;;6.50;5.20;;;;;;;3.21;100.00;101259.38;5051601;28;20401;-70
2023/11/22 02:59:13;;;;;;;8.27;4.93;;;;;;;3.18;100.00;101255.03;5047318;28;20302;-70
2023/11/22 03:01:42;;;;;;;7.25;5.03;;;;;;;3.12;100.00;101255.06;5058050;28;22848;-71
2023/11/22 03:04:10;;;;;;;6.22;4.88;;;;;;;3.05;100.00;101255.94;5028302;28;20060;-70
2023/11/22 03:06:38;;;;;;;7.05;5.05;;;;;;;3.00;100.00;101248.97;5031153;28;20057;-70
2023/11/22 03:09:08;;;;;;;7.07;4.88;;;;;;;3.03;100.00;101268.16;5045033;28;20120;-70
2023/11/22 03:11:38;;;;;;;6.65;4.80;;;;;;;3.00;100.00;101272.50;5054132;28;20265;-71
2023/11/22 03:14:09;;;;;;;8.95;5.57;;;;;;;2.93;100.00;101278.66;5025816;28;20041;-69
2023/11/22 03:16:39;;;;;;;8.32;5.55;;;;;;;2.98;100.00;101295.22;5031313;28;20045;-69
2023/11/22 03:19:13;;;;;;;7.10;5.53;;;;;;;2.99;100.00;101297.81;5046791;28;20473;-70
2023/11/22 03:21:43;;;;;;;8.50;5.43;;;;;;;2.95;100.00;101300.44;5045670;28;20048;-69
2023/11/22 03:24:12;;;;;;;7.97;5.38;;;;;;;2.91;100.00;101304.81;5040237;28;20561;-69
2023/11/22 03:26:40;;;;;;;8.45;5.63;;;;;;;2.88;100.00;101304.81;5037407;28;20107;-69
2023/11/22 03:29:12;;;;;;;8.77;5.32;;;;;;;2.91;100.00;101306.56;5045499;28;20048;-69
2023/11/22 03:31:40;;;;;;;7.97;5.53;;;;;;;2.86;100.00;101316.13;5042719;28;20760;-70
2023/11/22 03:34:08;;;;;;;8.68;5.78;;;;;;;2.76;100.00;101304.81;5026264;28;20529;-70
2023/11/22 03:36:36;;;;;;;8.90;5.70;;;;;;;2.77;100.00;101311.81;5034103;28;20060;-70
2023/11/22 03:39:05;;;;;;;11.25;5.32;;;;;;;2.74;100.00;101320.50;5038931;28;20033;-70
2023/11/22 03:41:37;;;;;;;10.25;5.53;;;;;;;2.76;100.00;101317.91;5039538;28;20577;-70
2023/11/22 03:44:08;;;;;;;8.25;5.30;;;;;;;2.72;100.00;101321.38;5054736;28;20055;-72
2023/11/22 03:46:40;;;;;;;10.73;5.60;;;;;;;2.67;100.00;101318.78;5033517;28;20595;-71
2023/11/22 03:49:09;;;;;;;8.20;5.97;;;;;;;2.62;100.00;101320.53;5029530;28;20047;-70
2023/11/22 03:51:37;;;;;;;7.93;5.30;;;;;;;2.65;100.00;101324.88;5041212;28;20099;-69
2023/11/22 03:54:06;;;;;;;7.03;5.10;;;;;;;2.65;100.00;101330.13;5022252;28;20160;-70
2023/11/22 03:56:34;;;;;;;8.02;4.93;;;;;;;2.64;100.00;101336.22;5037352;28;20180;-69
2023/11/22 03:59:03;;;;;;;7.47;5.22;;;;;;;2.64;100.00;101339.72;5042899;28;20056;-71
2023/11/22 04:01:31;;;;;;;9.85;5.65;;;;;;;2.66;100.00;101363.25;5046142;28;20160;-70
2023/11/22 04:04:04;;;;;;;7.88;5.43;;;;;;;2.61;100.00;101360.63;5043836;28;20072;-70
2023/11/22 04:06:33;;;;;;;10.32;4.85;;;;;;;2.60;100.00;101373.69;5023445;28;20057;-70
2023/11/22 04:09:01;;;;;;;7.07;4.57;;;;;;;2.54;100.00;101368.44;5042954;28;20049;-70
2023/11/22 04:11:30;;;;;;;7.97;5.15;;;;;;;2.59;100.00;101377.16;5057484;28;20498;-70
2023/11/22 04:13:58;;;;;;;7.20;4.53;;;;;;;2.60;100.00;101382.41;5045754;28;20048;-69
2023/11/22 04:16:29;;;;;;;10.82;5.07;;;;;;;2.63;100.00;101389.38;5055691;28;20665;-69
2023/11/22 04:18:58;;;;;;;8.63;4.80;;;;;;;2.58;100.00;101402.44;5039090;28;20041;-69
2023/11/22 04:21:27;;;;;;;6.47;4.50;;;;;;;2.54;100.00;101403.28;5043995;28;20057;-69
2023/11/22 04:23:58;;;;;;;7.30;4.65;;;;;;;2.55;100.00;101412.03;5045431;28;20103;-69
2023/11/22 04:26:27;;;;;;;7.88;4.60;;;;;;;2.49;100.00;101418.13;5021964;28;20077;-69
2023/11/22 04:28:56;;;;;;;8.95;4.68;;;;;;;2.55;100.00;101414.63;5040038;28;20063;-70
2023/11/22 04:31:25;;;;;;;7.88;4.72;;;;;;;2.51;100.00;101412.91;5038952;28;20048;-70
2023/11/22 04:33:54;;;;;;;7.35;4.95;;;;;;;2.40;100.00;101413.72;5060935;28;20036;-70
2023/11/22 04:36:23;;;;;;;7.28;4.53;;;;;;;2.37;100.00;101415.47;5037103;28;20106;-70
2023/11/22 04:38:54;;;;;;;6.63;4.68;;;;;;;2.34;100.00;101423.31;5031532;28;20069;-70
2023/11/22 04:41:26;;;;;;;7.57;4.93;;;;;;;2.32;100.00;101418.09;5039516;28;20138;-70
2023/11/22 04:43:54;;;;;;;10.05;4.70;;;;;;;2.33;100.00;101426.78;5040986;28;20037;-70
2023/11/22 04:46:22;;;;;;;7.75;4.82;;;;;;;2.35;100.00;101435.53;5036541;28;20459;-70
2023/11/22 04:48:54;;;;;;;6.35;4.55;;;;;;;2.34;100.00;101439.88;5041783;28;20052;-70
2023/11/22 04:51:25;;;;;;;8.82;4.85;;;;;;;2.30;100.00;101422.44;5038227;28;20049;-69
2023/11/22 04:53:54;;;;;;;8.10;4.97;;;;;;;2.28;100.00;101421.53;5038793;28;20475;-69
2023/11/22 04:56:22;;;;;;;9.55;5.32;;;;;;;2.25;100.00;101424.13;5041054;28;20488;-70
2023/11/22 04:58:54;;;;;;;8.15;4.95;;;;;;;2.25;100.00;101428.50;5032408;28;20562;-69
2023/11/22 05:01:22;;;;;;;9.27;5.20;;;;;;;2.24;100.00;101427.63;5034461;28;20048;-70
2023/11/22 05:03:53;;;;;;;6.80;4.82;;;;;;;2.26;100.00;101420.66;5040167;28;20045;-70
2023/11/22 05:06:21;;;;;;;7.80;4.47;;;;;;;2.32;100.00;101431.16;5032709;28;20107;-70
2023/11/22 05:08:50;;;;;;;7.68;5.35;;;;;;;2.28;100.00;101434.63;5031186;28;20043;-70
2023/11/22 05:11:21;;;;;;;6.22;4.70;;;;;;;2.27;100.00;101442.44;5037239;28;20052;-69
2023/11/22 05:13:52;;;;;;;8.02;5.25;;;;;;;2.15;100.00;101425.00;5040902;28;20040;-70
2023/11/22 05:16:23;;;;;;;9.48;5.13;;;;;;;2.24;100.00;101445.91;5041886;28;20053;-70
2023/11/22 05:18:52;;;;;;;7.35;4.40;;;;;;;2.20;100.00;101449.41;5008509;28;20045;-70
2023/11/22 05:21:20;;;;;;;9.30;5.32;;;;;;;2.17;100.00;101456.34;5030243;28;20049;-70
2023/11/22 05:23:52;;;;;;;8.40;4.90;;;;;;;2.10;100.00;101451.09;5030333;28;20057;-70
2023/11/22 05:26:24;;;;;;;6.75;4.53;;;;;;;2.09;100.00;101448.47;5007731;28;20067;-69
2023/11/22 05:28:53;;;;;;;10.33;5.23;;;;;;;2.09;100.00;101451.94;5050884;28;20079;-70
2023/11/22 05:31:22;;;;;;;6.07;4.57;;;;;;;2.03;100.00;101457.16;5039985;28;20053;-68
2023/11/22 05:33:50;;;;;;;9.27;5.53;;;;;;;1.94;100.00;101440.56;5023957;28;20046;-71
2023/11/22 05:36:20;;;;;;;8.43;5.38;;;;;;;2.01;100.00;101465.88;5042505;28;20037;-70
2023/11/22 05:38:47;;;;;;;7.63;4.85;;;;;;;1.99;100.00;101468.47;5036544;28;20052;-70
2023/11/22 05:41:16;;;;;;;9.82;5.45;;;;;;;2.00;100.00;101477.19;5046540;28;20561;-69
2023/11/22 05:43:46;;;;;;;8.95;5.22;;;;;;;1.99;100.00;101467.59;5044082;28;20064;-71
2023/11/22 05:46:14;;;;;;;8.98;5.05;;;;;;;1.98;100.00;101473.69;5048156;28;20056;-70
2023/11/22 05:48:42;;;;;;;7.53;5.07;;;;;;;1.95;100.00;101479.75;5040713;28;20420;-70
2023/11/22 05:51:10;;;;;;;8.55;5.45;;;;;;;1.88;100.00;101474.50;5040639;28;20056;-70
2023/11/22 05:53:38;;;;;;;10.15;5.40;;;;;;;1.92;100.00;101486.69;5043070;28;20140;-70
2023/11/22 05:56:08;;;;;;;7.68;5.28;;;;;;;1.88;100.00;101496.28;5050841;28;20132;-71
2023/11/22 05:58:38;;;;;;;9.25;5.38;;;;;;;1.84;100.00;101498.84;5020754;28;20041;-71
2023/11/22 06:01:08;;;;;;;8.15;5.40;;;;;;;1.82;100.00;101505.78;5045185;28;20040;-70
2023/11/22 06:03:37;;;;;;;7.88;5.65;;;;;;;1.81;100.00;101501.44;5034917;28;20048;-69
2023/11/22 06:06:05;;;;;;;9.90;5.60;;;;;;;1.79;100.00;101505.75;5044246;28;20049;-70
2023/11/22 06:08:36;;;;;;;10.65;5.45;;;;;;;1.79;100.00;101505.75;5037953;28;20511;-69
2023/11/22 06:11:05;;;;;;;6.80;4.30;;;;;;;1.75;100.00;101512.69;5042171;28;20037;-70
2023/11/22 06:13:35;;;;;;;7.25;5.18;;;;;;;1.73;100.00;101523.13;5058734;28;20127;-70
2023/11/22 06:16:04;;;;;;;8.65;5.13;;;;;;;1.74;100.00;101519.66;5045608;28;20049;-71
2023/11/22 06:18:33;;;;;;;8.55;5.32;;;;;;;1.69;100.00;101518.78;5019518;28;20049;-69
2023/11/22 06:21:01;;;;;;;8.65;5.22;;;;;;;1.70;100.00;101532.72;5050627;28;20041;-70
2023/11/22 06:23:29;;;;;;;9.10;5.32;;;;;;;1.64;100.00;101533.53;5035771;28;20059;-70
2023/11/22 06:25:57;;;;;;;9.98;6.10;;;;;;;1.62;100.00;101545.69;5035239;28;20073;-70
2023/11/22 06:28:28;;;;;;;7.68;4.97;;;;;;;1.58;100.00;101554.34;5044510;28;20216;-70
2023/11/22 06:30:56;;;;;;;8.40;5.43;;;;;;;1.54;100.00;101556.94;5044737;28;20096;-70
2023/11/22 06:33:27;;;;;;;10.23;5.10;;;;;;;1.56;100.00;101563.94;5041934;28;20119;-71
2023/11/22 06:35:57;;;;;;;8.70;5.30;;;;;;;1.55;100.00;101574.34;5027791;28;20087;-70
2023/11/22 06:38:25;;;;;;;10.20;5.55;;;;;;;1.55;100.00;101567.41;5042011;28;20045;-70
2023/11/22 06:40:53;;;;;;;9.23;5.60;;;;;;;1.50;100.00;101571.69;5047811;28;20053;-70
2023/11/22 06:43:22;;;;;;;8.02;5.03;;;;;;;1.46;100.00;101574.25;5044553;28;20041;-71
2023/11/22 06:45:50;;;;;;;8.45;5.25;;;;;;;1.41;100.00;101571.63;5039587;28;20045;-70
2023/11/22 06:48:19;;;;;;;7.90;5.35;;;;;;;1.43;100.00;101572.50;5036394;28;20072;-68
2023/11/22 06:50:49;;;;;;;6.85;3.80;;;;;;;1.43;100.00;101575.09;5039208;28;20038;-70
2023/11/22 06:53:20;;;;;;;7.70;4.78;;;;;;;1.46;100.00;101569.91;5039679;28;20045;-69
2023/11/22 06:55:49;;;;;;;10.75;5.18;;;;;;;1.49;100.00;101574.28;5027933;28;20488;-70
2023/11/22 06:58:21;;;;;;;7.22;4.82;;;;;;;1.45;100.00;101567.28;5036434;28;20387;-69
2023/11/22 07:00:52;;;;;;;8.90;5.22;;;;;;;1.40;100.00;101570.75;5039509;28;20060;-69
2023/11/22 07:03:21;;;;;;;8.88;4.93;;;;;;;1.33;100.00;101568.06;5043798;28;20064;-69
2023/11/22 07:05:53;;;;;;;9.98;5.07;;;;;;;1.34;100.00;101588.06;5057391;28;20053;-71
2023/11/22 07:08:23;;;;;;;8.48;4.97;;;;;;;1.30;100.00;101592.38;5019273;28;20417;-70
2023/11/22 07:10:53;;;;;;;13.80;5.32;;;;;;;1.29;100.00;101593.25;5045267;28;20038;-69
2023/11/22 07:13:20;;;;;;;13.90;4.97;;;;;;;1.24;100.00;101601.91;5038751;28;20132;-69
2023/11/22 07:15:50;;;;;;;8.40;5.43;;;;;;;1.29;100.00;101601.06;5061833;28;20041;-70
2023/11/22 07:18:18;;;;;;;6.53;4.45;;;;;;;1.28;100.00;101604.53;5032487;28;20201;-70
2023/11/22 07:20:49;;;;;;;7.15;4.22;;;;;;;1.31;100.00;101606.31;5044876;28;20159;-70
2023/11/22 07:23:19;;;;;;;6.88;4.50;;;;;;;1.37;100.00;101607.25;5040759;28;20370;-70
2023/11/22 07:25:49;;;;;;;12.15;4.68;;;;;;;1.43;100.00;101611.66;5049411;28;20052;-70
2023/11/22 07:28:17;;;;;;;8.52;4.30;;;;;;;1.39;100.00;101589.88;5040273;28;20064;-70
2023/11/22 07:30:46;;;;;;;8.40;4.63;;;;;;;1.42;100.00;101599.44;5046063;28;20049;-70
2023/11/22 07:33:16;;;;;;;7.10;4.88;;;;;;;1.43;100.00;101601.19;5041899;28;20045;-71
2023/11/22 07:35:46;;;;;;;11.93;6.72;;;;;;;1.53;100.00;101610.88;5046747;28;20133;-70
2023/11/22 07:38:14;;;;;;;7.57;5.00;;;;;;;1.64;100.00;101618.81;5043354;28;20072;-69
2023/11/22 07:40:43;;;;;;;10.15;4.97;;;;;;;1.72;100.00;101620.66;5049814;28;20677;-70
2023/11/22 07:43:12;;;;;;;7.32;4.82;;;;;;;1.75;100.00;101615.41;5041117;28;20045;-70
2023/11/22 07:45:40;;;;;;;8.02;4.80;;;;;;;1.80;100.00;101614.59;5043130;28;20045;-70
2023/11/22 07:48:11;;;;;;;8.15;4.80;;;;;;;1.83;100.00;101609.41;5038519;28;20052;-70
2023/11/22 07:50:39;;;;;;;;;;;;;;;1.90;100.00;101612.06;5039949;28;20068;-70
2023/11/22 07:53:08;;;;;;;10.35;4.90;;;;;;;1.88;100.00;101602.50;5040478;28;19939;-69
2023/11/22 07:55:37;;;;;;;10.95;4.78;;;;;;;1.82;100.00;101595.47;5029643;28;20525;-70
2023/11/22 07:58:07;;;;;;;9.60;4.45;;;;;;;1.88;100.00;101611.19;5039254;28;20041;-71
2023/11/22 08:00:36;;;;;;;8.70;4.20;;;;;;;1.79;100.00;101587.59;5046115;28;20282;-70
2023/11/22 08:03:30;;;;;;;7.43;4.18;;;;;;;1.85;100.00;101598.09;5057704;28;20067;-70
2023/11/22 08:06:02;;;;;;;9.73;4.95;;;;;;;1.79;100.00;101605.00;5042142;28;20053;-70
2023/11/22 08:08:31;;;;;;;7.93;4.40;;;;;;;1.75;100.00;101610.19;5032788;28;20229;-69
2023/11/22 08:10:59;;;;;;;7.95;4.70;;;;;;;1.75;100.00;101610.19;5041683;28;20124;-70
2023/11/22 08:13:32;;;;;;;8.32;4.93;;;;;;;1.77;100.00;101613.69;5022408;28;20037;-70
2023/11/22 08:16:03;;;;;;;8.23;4.20;;;;;;;1.69;100.00;101602.34;5041147;28;20056;-70
2023/11/22 08:18:43;;;;;;;8.48;4.60;;;;;;;1.75;100.00;101623.25;5092168;27;20881;-69
2023/11/22 08:21:11;;;;;;;8.30;4.75;;;;;;;1.84;100.00;101621.59;5061195;28;20051;-69
2023/11/22 08:23:41;;;;;;;9.55;5.00;;;;;;;1.85;100.00;101632.06;5082168;28;20079;-69
2023/11/22 08:26:11;;;;;;;8.65;4.15;;;;;;;1.89;100.00;101623.38;5052581;28;20071;-69
2023/11/22 08:28:40;;;;;;;7.80;4.45;;;;;;;1.94;100.00;101626.03;5098408;28;20058;-71
2023/11/22 08:31:10;;;;;;;7.72;4.78;;;;;;;1.94;100.00;101605.13;5066589;28;20576;-69
2023/11/22 08:33:38;;;;;;;8.80;4.47;;;;;;;2.09;100.00;101615.69;5104460;28;20052;-71
2023/11/22 08:36:10;;;;;;;8.02;4.20;;;;;;;2.15;100.00;101618.34;5096123;28;20059;-70
2023/11/22 08:38:40;;;;;;;7.53;4.72;;;;;;;2.19;100.00;101627.97;5064581;28;20878;-70
2023/11/22 08:41:13;;;;;;;7.50;4.53;;;;;;;2.23;100.00;101632.31;5107942;28;20028;-70
2023/11/22 08:43:42;;;;;;;7.03;4.35;;;;;;;2.27;100.00;101631.50;5103496;28;20058;-69
2023/11/22 08:46:11;;;;;;;10.43;4.75;;;;;;;2.28;100.00;101614.94;5098655;28;20040;-69
2023/11/22 08:48:42;;;;;;;9.35;4.88;;;;;;;2.42;100.00;101628.97;5090770;28;20056;-69
2023/11/22 08:51:12;;;;;;;6.07;4.00;;;;;;;2.42;100.00;101631.59;5110771;28;20392;-70
2023/11/22 08:53:44;;;;;;;8.60;4.90;;;;;;;2.47;100.00;101636.84;5095881;28;20046;-69
2023/11/22 08:56:13;;;;;;;7.82;4.60;;;;;;;2.47;100.00;101624.66;5074711;28;20051;-69
2023/11/22 08:58:42;;;;;;;5.57;4.05;;;;;;;2.56;100.00;101641.25;5095336;28;20037;-69
2023/11/22 09:01:15;;;;;;;6.72;4.18;;;;;;;2.65;100.00;101646.53;5110779;28;20049;-69
2023/11/22 09:03:44;;;;;;;6.63;4.57;;;;;;;2.69;100.00;101657.00;5073848;28;20048;-69
2023/11/22 09:06:14;;;;;;;6.97;4.35;;;;;;;2.69;100.00;101649.16;5107553;28;20040;-69
2023/11/22 09:08:43;;;;;;;6.03;4.15;;;;;;;2.78;100.00;101661.44;5083911;28;20041;-71
2023/11/22 09:11:15;;;;;;;;;;;;;;;2.82;100.00;101650.13;5065379;28;20051;-70
2023/11/22 09:14:34;;;;;;;7.72;4.13;;;;;;;2.90;100.00;101655.38;5088971;28;19928;-69
2023/11/22 09:17:43;;;;;;;9.90;4.47;;;;;;;3.02;100.00;101648.44;5079071;28;20050;-70
2023/11/22 09:20:15;;;;;;;9.52;3.88;;;;;;;3.00;100.00;101650.16;5075683;28;20897;-70
2023/11/22 09:22:49;;;;;;;6.20;4.38;;;;;;;3.02;100.00;101651.06;5076841;28;20048;-69
2023/11/22 09:25:21;;;;;;;6.07;3.63;;;;;;;3.01;100.00;101659.78;5079588;28;20044;-70
2023/11/22 09:27:53;;;;;;;8.20;3.85;;;;;;;3.02;100.00;101640.59;5093902;28;20059;-70
2023/11/22 09:30:37;;;;;;;10.90;4.38;;;;;;;3.02;100.00;101661.53;5059514;28;20043;-71
2023/11/22 09:33:07;;;;;;;6.65;3.78;;;;;;;3.05;100.00;101650.19;5069027;28;20062;-69
2023/11/22 09:35:37;;;;;;;5.95;4.28;;;;;;;3.11;100.00;101661.59;5083940;28;20037;-71
2023/11/22 09:38:09;;;;;;;9.45;3.78;;;;;;;3.16;100.00;101675.53;5069944;28;20040;-71
2023/11/22 09:40:42;;;;;;;6.30;3.90;;;;;;;3.10;100.00;101680.75;5062181;28;20513;-70
2023/11/22 09:43:11;;;;;;;6.38;3.80;;;;;;;3.06;100.00;101684.22;5077002;28;20131;-69
2023/11/22 09:45:44;;;;;;;4.70;3.33;;;;;;;3.07;100.00;101690.34;5058755;28;20435;-70
2023/11/22 09:48:15;;;;;;;;;;;;;;;3.08;100.00;101689.47;5066788;28;20811;-70
2023/11/22 09:50:54;;;;;;;5.95;3.85;;;;;;;3.05;100.00;101682.47;5038389;28;19928;-71
2023/11/22 09:53:29;;;;;;;6.50;3.47;;;;;;;3.11;100.00;101682.50;5068351;28;20042;-71
2023/11/22 09:56:00;;;;;;;6.47;3.70;;;;;;;3.25;100.00;101684.31;5066960;28;20401;-70
2023/11/22 09:58:40;;;;;;;5.32;4.00;;;;;;;3.17;100.00;101682.53;5064767;28;20037;-71
2023/11/22 10:01:11;;;;;;;5.30;3.58;;;;;;;3.11;100.00;101687.75;5079575;28;20068;-70
2023/11/22 10:03:39;;;;;;;;;;;;;;;3.14;100.00;101706.09;5069430;28;20703;-72
2023/11/22 10:06:08;;;;;;;6.20;3.50;;;;;;;3.13;100.00;101700.84;5070154;28;19928;-69
2023/11/22 10:08:38;;;;;;;5.10;3.25;;;;;;;3.12;100.00;101705.22;5031252;28;20425;-70
2023/11/22 10:11:06;;;;;;;;;;;;;;;3.13;100.00;101695.63;5070943;28;20037;-70
2023/11/22 10:13:35;;;;;;;7.75;3.75;;;;;;;3.17;100.00;101698.22;5073073;28;19924;-69
2023/11/22 10:16:14;;;;;;;7.07;3.95;;;;;;;3.12;100.00;101691.25;5075117;28;20041;-71
2023/11/22 10:18:51;;;;;;;7.45;3.95;;;;;;;3.20;100.00;101707.84;5079697;28;20064;-70
2023/11/22 10:21:23;;;;;;;8.18;4.30;;;;;;;3.30;100.00;101714.00;5055113;28;20080;-69
2023/11/22 10:24:09;;;;;;;6.22;3.80;;;;;;;3.45;100.00;101703.59;5066828;28;20491;-71
2023/11/22 10:26:49;;;;;;;5.13;3.28;;;;;;;3.51;100.00;101693.09;5063491;28;20052;-70
2023/11/22 10:29:26;;;;;;;5.22;3.53;;;;;;;3.56;100.00;101701.84;5063802;28;20862;-69
2023/11/22 10:31:54;;;;;;;5.90;3.92;;;;;;;3.54;100.00;101693.13;5064740;28;20048;-70
2023/11/22 10:34:24;;;;;;;6.28;3.80;;;;;;;3.51;100.00;101699.22;5055906;28;20059;-70
2023/11/22 10:36:53;;;;;;;4.83;3.37;;;;;;;3.46;99.70;101693.09;5084445;28;20049;-70
2023/11/22 10:39:25;;;;;;;4.57;3.30;;;;;;;3.42;100.00;101695.72;5068199;28;20479;-69
2023/11/22 10:41:54;;;;;;;6.65;3.70;;;;;;;3.42;100.00;101685.25;5083210;28;20045;-71
2023/11/22 10:44:23;;;;;;;5.53;3.67;;;;;;;3.48;99.87;101690.47;5085164;28;20452;-70
2023/11/22 10:46:52;;;;;;;5.00;3.25;;;;;;;3.47;96.65;101702.69;5066362;28;20049;-70
2023/11/22 10:49:21;;;;;;;5.15;3.50;;;;;;;3.46;100.00;101695.69;5063392;28;20523;-69
2023/11/22 10:51:53;;;;;;;7.20;4.38;;;;;;;3.56;98.65;101709.72;5038847;28;20036;-72
2023/11/22 10:54:24;;;;;;;6.03;3.63;;;;;;;3.56;96.98;101711.47;5063679;28;20155;-71
2023/11/22 10:56:55;;;;;;;;;;;;;;;3.59;95.39;101722.81;5066874;28;20044;-71
2023/11/22 10:59:29;;;;;;;4.90;3.22;;;;;;;3.62;94.17;101730.66;5062022;28;20303;-68
2023/11/22 11:01:59;;;;;;;6.15;3.25;;;;;;;3.65;92.60;101735.91;5062705;28;20167;-70
2023/11/22 11:04:35;;;;;;;5.60;3.63;;;;;;;3.68;92.77;101732.44;5065531;28;20167;-70
2023/11/22 11:07:05;;;;;;;5.55;3.90;;;;;;;3.74;94.30;101733.34;5063979;28;21510;-68
2023/11/22 11:09:36;;;;;;;6.00;3.53;;;;;;;3.78;94.21;101742.94;5068172;28;20880;-70
2023/11/22 11:12:06;;;;;;;6.65;3.60;;;;;;;3.56;92.05;101728.03;5077457;28;20136;-71
2023/11/22 11:14:37;;;;;;;7.47;3.58;;;;;;;3.59;94.89;101759.50;5064770;28;20070;-69
2023/11/22 11:17:07;;;;;;;5.40;3.38;;;;;;;3.53;91.37;101764.69;5045845;28;20096;-70
2023/11/22 11:19:35;;;;;;;7.00;3.85;;;;;;;3.43;95.28;101753.31;5058533;28;20048;-71
2023/11/22 11:22:09;;;;;;;6.18;3.60;;;;;;;3.52;92.48;101769.06;5063099;28;20049;-69
2023/11/22 11:24:44;;;;;;;6.22;3.47;;;;;;;3.54;93.30;101755.97;5064575;28;20415;-70
2023/11/22 11:27:12;;;;;;;5.15;3.38;;;;;;;3.56;94.61;101737.66;5066295;28;20559;-72
2023/11/22 11:29:42;;;;;;;6.10;3.45;;;;;;;3.65;89.99;101753.38;5054586;28;20044;-70
2023/11/22 11:32:12;;;;;;;5.38;3.58;;;;;;;3.65;92.78;101749.00;5049622;28;20044;-69
2023/11/22 11:34:49;;;;;;;6.23;3.43;;;;;;;3.66;90.26;101766.47;5062346;28;20511;-70
2023/11/22 11:37:20;;;;;;;5.75;3.40;;;;;;;3.60;91.10;101761.25;5080493;28;20474;-69
2023/11/22 11:39:49;;;;;;;7.32;3.92;;;;;;;3.69;89.79;101771.75;5065472;28;20119;-69
2023/11/22 11:42:18;;;;;;;6.78;3.25;;;;;;;3.68;87.48;101767.38;5055277;28;20064;-69